• Join FlightAware (Why Join?)
  • Login
  • US Flag 
04:25AM EDT


 

Airport Tracker/Info


-or-


 

Live Flight TrackerFlight Track Log ✈ N818PW ✈ 18-Apr-2013 ✈ KAPA - KBJC

Flight Track Log - Related Links

Times and Time Zones

All times are in EDT time to prevent confusion due to time zone crossing. See the N818PW flight status page for this flight to view local times or setup timezone preferences in your user account.

Time Position Orientation Groundspeed Altitude Reporting Facility
EDT Latitude Longitude Course Direction KTS MPH feet Rate Location/Type
10:54AM 39.5490 -104.8620 184° South 131 151 6,800  Level FlightAware
10:54AM 39.5490 -104.8680 270° West 130 150 6,900 960 Climbing FlightAware
10:55AM 39.5600 -104.8810 318° Northwest 136 157 7,300 780 Climbing FlightAware
10:55AM 39.5720 -104.8880 336° Northwest 153 176 7,500 600 Climbing FlightAware
10:56AM 39.5970 -104.9030 335° Northwest 162 186 7,900 360 Climbing FlightAware
10:56AM 39.6180 -104.9150 336° Northwest 176 203 7,900 -120 Level FlightAware
10:56AM 39.6350 -104.9270 331° Northwest 177 204 7,800  Descending FlightAware
10:57AM 39.6570 -104.9430 331° Northwest 177 204 7,900 60 Climbing FlightAware
10:57AM 39.6780 -104.9590 330° Northwest 174 200 7,900  Level FlightAware
10:58AM 39.6840 -104.9630 333° Northwest 173 199 7,900  Level FlightAware
10:58AM 39.6970 -104.9690 340° North 170 196 7,900 -420 Level FlightAware
10:58AM 39.7080 -104.9720 348° North 176 203 7,700 -720 Descending FlightAware
10:59AM 39.7330 -104.9780 350° North 187 215 7,400 -780 Descending FlightAware
10:59AM 39.7560 -104.9820 352° North 191 220 7,000 -600 Descending FlightAware
11:00AM 39.7810 -104.9870 351° North 186 214 6,900 -120 Descending FlightAware
11:00AM 39.8020 -104.9920 350° North 179 206 6,900  Level FlightAware
11:00AM 39.8250 -104.9970 351° North 173 199 6,900 -300 Level FlightAware
11:01AM 39.8490 -105.0090 339° North 185 213 6,600 -360 Descending FlightAware
11:01AM 39.8630 -105.0280 314° West 156 180 6,600 -240 Level FlightAware
11:02AM 39.8730 -105.0470 304° West 114 131 6,400 -660 Descending FlightAware
11:02AM 39.8810 -105.0620 305° West 127 146 6,000 -720 Descending FlightAware
11:03AM 39.8890 -105.0770 305° West 132 152 5,800 -480 Descending FlightAware
11:03AM 39.8970 -105.0930 303° West 127 146 5,600 -240 Descending FlightAware
11:04AM 39.9050 -105.1080 305° West 127 146 5,600  Level FlightAware
11:12AM 39.9000 -105.1167 327° Northwest  Level FlightAware Approximate
11:13AM 39.9088 -105.1172 327° Northwest  Level Estimated